Time;durP1;ratioP1;P1;durP2;ratioP2;P2;SDS_P1;SDS_P2;PMS_P1;PMS_P2;Temp;Humidity;BMP_temperature;BMP_pressure;BME280_temperature;BME280_humidity;BME280_pressure;Samples;Min_cycle;Max_cycle;Signal;HPM_P1;HPM_P2
2022/12/22 03:27:07;;;;;;;;;1.00;1.00;;;;;21.08;39.63;100334.63;5057945;28;45516;-68
2022/12/22 03:29:33;;;;;;;;;0.00;0.00;;;;;21.09;39.60;100354.75;5054035;28;45404;-68
2022/12/22 03:31:58;;;;;;;;;0.00;0.00;;;;;21.00;40.14;100336.31;5055205;28;45319;-68
2022/12/22 03:34:23;;;;;;;;;0.00;0.00;;;;;21.08;39.45;100348.66;5054904;28;45427;-68
2022/12/22 03:36:49;;;;;;;;;0.00;0.00;;;;;21.09;39.64;100360.88;5054473;28;46471;-68
2022/12/22 03:39:14;;;;;;;;;0.00;0.00;;;;;21.08;39.96;100376.94;5054865;28;45261;-69
2022/12/22 03:47:07;;;;;;;;;0.00;0.00;;;;;21.08;39.61;100408.69;5054542;28;45754;-69
2022/12/22 03:49:32;;;;;;;;;0.00;0.00;;;;;21.09;39.65;100426.19;5054660;27;45353;-68
2022/12/22 03:51:57;;;;;;;;;1.00;1.00;;;;;21.09;39.89;100436.75;5054551;28;45321;-69
2022/12/22 03:54:24;;;;;;;;;0.00;0.00;;;;;21.09;39.76;100442.06;5049392;28;45309;-68
2022/12/22 03:56:50;;;;;;;;;1.00;1.00;;;;;21.08;39.39;100451.81;5034544;28;46471;-68
2022/12/22 03:59:17;;;;;;;;;0.00;0.00;;;;;21.07;39.84;100463.41;5016658;28;45305;-68
2022/12/22 04:01:52;;;;;;;;;0.00;0.00;;;;;21.01;39.77;100458.81;5034209;28;45403;-68
2022/12/22 04:04:19;;;;;;;;;0.00;0.00;;;;;21.00;39.43;100475.69;5034414;28;45383;-68
2022/12/22 04:06:45;;;;;;;;;0.00;0.00;;;;;21.09;39.67;100498.44;5034008;28;45432;-68
2022/12/22 04:09:11;;;;;;;;;0.00;0.00;;;;;20.96;39.72;100488.44;5034203;28;45356;-68
2022/12/22 04:14:21;;;;;;;;;0.67;0.00;;;;;21.09;39.73;100516.94;5034406;28;45347;-69
2022/12/22 04:16:46;;;;;;;;;0.00;0.00;;;;;21.09;39.96;100518.75;5034247;28;46265;-68
2022/12/22 04:19:12;;;;;;;;;0.33;0.33;;;;;21.08;39.79;100523.22;5034215;28;45280;-68
2022/12/22 04:21:37;;;;;;;;;1.00;0.67;;;;;21.11;39.76;100529.97;5034065;27;45389;-68
2022/12/22 04:24:03;;;;;;;;;1.00;0.00;;;;;21.11;39.69;100532.63;5034317;28;45248;-68
2022/12/22 04:26:29;;;;;;;;;0.00;0.00;;;;;21.00;39.53;100510.06;5034103;28;46405;-68
2022/12/22 04:28:54;;;;;;;;;0.67;0.67;;;;;21.05;39.40;100527.06;5034031;28;45275;-68
2022/12/22 04:31:21;;;;;;;;;0.00;0.00;;;;;21.13;39.34;100533.28;5034213;28;45280;-69
2022/12/22 04:33:47;;;;;;;;;0.00;0.00;;;;;21.12;39.31;100537.75;5033823;28;45810;-68
2022/12/22 04:36:13;;;;;;;;;1.00;1.00;;;;;21.06;39.90;100525.25;5033918;28;46127;-68
2022/12/22 04:38:38;;;;;;;;;1.00;1.00;;;;;21.13;39.70;100536.72;5033873;28;45488;-68
2022/12/22 04:41:05;;;;;;;;;0.00;0.00;;;;;21.13;39.73;100549.16;5033972;28;45336;-68
2022/12/22 04:43:30;;;;;;;;;0.00;0.00;;;;;21.13;39.29;100560.53;5034026;28;45367;-68
2022/12/22 04:45:56;;;;;;;;;0.33;0.33;;;;;21.13;39.63;100565.84;5033756;28;45465;-69
2022/12/22 04:48:24;;;;;;;;;1.00;0.67;;;;;21.15;39.30;100571.78;5033321;28;45466;-68
2022/12/22 04:50:51;;;;;;;;;0.00;0.00;;;;;21.14;39.75;100578.06;5034156;28;45310;-69
2022/12/22 04:53:16;;;;;;;;;0.00;0.00;;;;;21.15;39.61;100574.44;5033851;28;45376;-68
2022/12/22 04:55:48;;;;;;;;;0.00;0.00;;;;;21.03;39.59;100559.97;5033647;28;45261;-68
2022/12/22 04:58:14;;;;;;;;;1.00;0.00;;;;;21.15;39.66;100584.19;5033722;28;45241;-68
2022/12/22 05:00:40;;;;;;;;;0.00;0.00;;;;;21.10;39.34;100575.97;5033830;28;45705;-68
2022/12/22 05:03:06;;;;;;;;;0.33;0.00;;;;;21.15;39.34;100589.47;5043950;27;45497;-68
2022/12/22 05:05:32;;;;;;;;;0.00;0.00;;;;;21.15;39.75;100600.06;5053736;28;46279;-68
2022/12/22 05:07:57;;;;;;;;;0.00;0.00;;;;;21.15;39.36;100605.34;5053669;28;45275;-68
2022/12/22 05:10:23;;;;;;;;;0.00;0.00;;;;;21.14;39.78;100609.81;5053862;28;45272;-68
2022/12/22 05:12:54;;;;;;;;;0.00;0.00;;;;;21.14;39.82;100617.75;5053777;28;45400;-68
2022/12/22 05:15:24;;;;;;;;;0.00;0.00;;;;;21.14;39.36;100614.28;5053710;28;45403;-69
2022/12/22 05:17:49;;;;;;;;;0.00;0.00;;;;;21.13;39.51;100621.38;5053247;28;45310;-68
2022/12/22 05:20:15;;;;;;;;;0.67;0.67;;;;;21.05;39.36;100611.69;5053797;28;45396;-68
2022/12/22 05:22:41;;;;;;;;;0.00;0.00;;;;;21.05;39.47;100610.91;5053758;28;45423;-68
2022/12/22 05:25:06;;;;;;;;;0.00;0.00;;;;;21.13;39.47;100623.22;5053439;28;46068;-69
2022/12/22 05:27:32;;;;;;;;;0.00;0.00;;;;;21.12;39.72;100618.94;5053547;28;45475;-68
2022/12/22 05:29:57;;;;;;;;;0.00;0.00;;;;;21.12;39.54;100624.22;5053751;28;45328;-68
2022/12/22 05:32:22;;;;;;;;;0.00;0.00;;;;;21.12;39.78;100627.69;5053244;28;45248;-68
2022/12/22 05:34:48;;;;;;;;;0.00;0.00;;;;;21.11;39.55;100630.50;5053530;28;45388;-68
2022/12/22 05:37:13;;;;;;;;;1.00;0.00;;;;;21.11;39.71;100625.22;5053428;28;45333;-69
2022/12/22 05:39:38;;;;;;;;;0.33;0.33;;;;;21.03;39.35;100616.34;5053469;28;45818;-68
2022/12/22 05:42:04;;;;;;;;;0.00;0.00;;;;;21.11;39.69;100633.16;5053322;28;45208;-68
2022/12/22 05:44:29;;;;;;;;;0.00;0.00;;;;;21.10;39.61;100636.81;5053231;28;45345;-68
2022/12/22 05:46:55;;;;;;;;;0.00;0.00;;;;;21.10;39.50;100639.47;5052996;28;45324;-69
2022/12/22 05:49:20;;;;;;;;;0.67;0.67;;;;;21.10;39.60;100640.28;5053384;27;45307;-69
2022/12/22 05:51:45;;;;;;;;;0.00;0.00;;;;;21.10;39.39;100653.50;5052477;28;45475;-68
2022/12/22 05:54:11;;;;;;;;;0.00;0.00;;;;;21.10;39.69;100655.34;5049462;28;45221;-68
2022/12/22 05:56:36;;;;;;;;;0.00;0.00;;;;;21.09;39.81;100656.31;5015119;28;45386;-69
2022/12/22 05:59:02;;;;;;;;;0.00;0.00;;;;;21.10;39.91;100663.25;5033170;28;46009;-68
2022/12/22 06:01:27;;;;;;;;;1.00;0.00;;;;;21.03;39.42;100663.97;5014452;28;45475;-68
2022/12/22 06:03:53;;;;;;;;;0.00;0.00;;;;;21.09;39.89;100675.66;5050085;28;46075;-68
2022/12/22 06:06:18;;;;;;;;;0.00;0.00;;;;;21.09;39.49;100683.59;5052939;28;45553;-69
2022/12/22 06:08:43;;;;;;;;;0.33;0.00;;;;;21.09;39.69;100685.41;5053097;28;45263;-68
2022/12/22 06:11:09;;;;;;;;;0.00;0.00;;;;;21.08;39.60;100692.53;5053048;28;45524;-69
2022/12/22 06:13:34;;;;;;;;;0.00;0.00;;;;;21.07;39.59;100685.59;5052774;28;45779;-69
2022/12/22 06:15:59;;;;;;;;;0.00;0.00;;;;;21.02;39.57;100683.50;5052426;28;45334;-68
2022/12/22 06:18:25;;;;;;;;;0.00;0.00;;;;;21.06;39.64;100686.59;5052798;28;45429;-68
2022/12/22 06:20:51;;;;;;;;;1.00;0.00;;;;;21.06;39.50;100690.06;5053082;28;45620;-69
2022/12/22 06:23:16;;;;;;;;;1.00;1.00;;;;;21.09;39.93;100682.78;5034659;28;46132;-68
2022/12/22 06:25:42;;;;;;;;;0.00;0.00;;;;;21.09;39.77;100685.41;5052462;28;45421;-68
2022/12/22 06:28:07;;;;;;;;;0.67;0.00;;;;;21.10;39.85;100687.06;5034845;28;45331;-68
2022/12/22 06:30:32;;;;;;;;;0.00;0.00;;;;;21.10;39.62;100679.13;5052429;28;45331;-68
2022/12/22 06:32:59;;;;;;;;;0.00;0.00;;;;;21.01;39.37;100679.19;5052410;28;45818;-69
2022/12/22 06:35:24;;;;;;;;;0.00;0.00;;;;;21.06;39.40;100679.50;5052741;28;45313;-69
2022/12/22 06:37:49;;;;;;;;;1.00;0.00;;;;;21.11;39.93;100689.53;5052539;28;45272;-68
2022/12/22 06:40:15;;;;;;;;;0.00;0.00;;;;;21.11;39.55;100689.53;5052509;28;45547;-68
2022/12/22 06:45:24;;;;;;;;;0.00;0.00;;;;;21.12;39.36;100685.91;5052007;28;45292;-68
2022/12/22 06:47:49;;;;;;;;;0.00;0.00;;;;;21.13;39.62;100692.03;5052479;28;45343;-69
2022/12/22 06:50:14;;;;;;;;;0.00;0.00;;;;;21.12;39.56;100699.13;5052415;28;45298;-68
2022/12/22 06:52:40;;;;;;;;;0.00;0.00;;;;;21.12;39.86;100704.41;5052202;28;46109;-68
2022/12/22 06:55:06;;;;;;;;;0.00;0.00;;;;;21.11;39.75;100696.63;5041130;28;45468;-68
2022/12/22 06:57:31;;;;;;;;;1.00;1.00;;;;;21.13;39.28;100702.59;5032231;28;45386;-68
2022/12/22 06:59:56;;;;;;;;;0.00;0.00;;;;;21.12;39.80;100701.78;5031653;28;45441;-69
2022/12/22 07:02:22;;;;;;;;;0.00;0.00;;;;;21.12;39.43;100698.28;5036232;27;46149;-68
2022/12/22 07:04:47;;;;;;;;;0.00;0.00;;;;;21.12;39.33;100700.94;5054727;28;45144;-69
2022/12/22 07:07:12;;;;;;;;;0.00;0.00;;;;;21.12;39.85;100695.66;5055380;28;45433;-68
2022/12/22 07:09:38;;;;;;;;;0.00;0.00;;;;;21.13;39.70;100705.25;5055361;28;45400;-68
2022/12/22 07:12:03;;;;;;;;;0.00;0.00;;;;;21.13;39.55;100707.88;5054991;28;46093;-68
2022/12/22 07:14:28;;;;;;;;;0.33;0.00;;;;;21.12;39.75;100698.28;5036803;28;45344;-69
2022/12/22 07:16:54;;;;;;;;;0.00;0.00;;;;;21.12;39.71;100703.59;5055223;28;45245;-69
2022/12/22 07:19:19;;;;;;;;;0.00;0.00;;;;;21.12;39.74;100709.72;5055340;28;45513;-69
2022/12/22 07:21:46;;;;;;;;;0.00;0.00;;;;;21.12;39.50;100711.53;5054901;28;46075;-69
2022/12/22 07:24:12;;;;;;;;;0.00;0.00;;;;;21.11;39.95;100701.94;5036618;28;45415;-68
2022/12/22 07:26:37;;;;;;;;;0.00;0.00;;;;;21.10;39.72;100703.78;5054994;28;45363;-69
2022/12/22 07:29:03;;;;;;;;;2.00;0.00;;;;;21.12;39.54;100712.34;5054694;28;45475;-68
2022/12/22 07:31:28;;;;;;;;;0.00;0.00;;;;;21.09;39.99;100698.66;5054832;28;47161;-68
2022/12/22 07:33:53;;;;;;;;;0.00;0.00;;;;;21.12;39.67;100706.22;5055013;28;45449;-68
2022/12/22 07:36:19;;;;;;;;;0.00;0.00;;;;;20.95;39.93;100675.41;5054972;28;45287;-68
2022/12/22 07:38:47;;;;;;;;;0.00;0.00;;;;;21.10;39.75;100700.31;5054949;27;45296;-68
2022/12/22 07:44:00;;;;;;;;;0.00;0.00;;;;;21.03;39.84;100689.59;5054379;28;45382;-69
2022/12/22 07:46:27;;;;;;;;;0.00;0.00;;;;;21.11;39.92;100715.16;5036964;28;45377;-68
2022/12/22 07:51:39;;;;;;;;;0.00;0.00;;;;;21.09;39.89;100704.75;5054404;28;45519;-68
2022/12/22 07:54:07;;;;;;;;;0.00;0.00;;;;;21.09;39.64;100712.69;5051782;28;45352;-68
2022/12/22 07:56:33;;;;;;;;;1.67;0.00;;;;;21.10;39.88;100710.88;5034532;28;45228;-68
2022/12/22 07:58:58;;;;;;;;;0.00;0.00;;;;;21.10;39.67;100719.66;5034003;28;45576;-68
2022/12/22 08:01:24;;;;;;;;;3.00;0.00;;;;;21.09;39.91;100717.16;5034168;28;46781;-69
2022/12/22 08:03:50;;;;;;;;;0.00;0.00;;;;;21.05;39.62;100706.94;5051188;28;45416;-68
2022/12/22 08:06:17;;;;;;;;;0.00;0.00;;;;;21.09;39.93;100719.81;5054023;28;45379;-69
2022/12/22 08:08:42;;;;;;;;;0.00;0.00;;;;;21.08;39.65;100707.59;5054612;28;45352;-69
2022/12/22 08:11:08;;;;;;;;;0.00;0.00;;;;;21.08;39.80;100705.75;5054373;28;46264;-68
2022/12/22 08:13:34;;;;;;;;;0.00;0.00;;;;;21.08;39.95;100718.19;5053687;28;45413;-68
2022/12/22 08:16:05;;;;;;;;;0.00;0.00;;;;;20.94;39.70;100700.22;5054193;28;45368;-68
2022/12/22 08:18:31;;;;;;;;;1.00;0.00;;;;;21.06;39.51;100715.69;5054270;28;45351;-69
2022/12/22 08:20:56;;;;;;;;;0.00;0.00;;;;;20.92;39.76;100698.75;5054183;28;46972;-68
2022/12/22 08:23:21;;;;;;;;;0.00;0.00;;;;;21.05;39.74;100722.78;5054215;28;45375;-69
2022/12/22 08:25:54;;;;;;;;;1.00;1.00;;;;;21.05;39.85;100714.88;5053955;28;45330;-68
2022/12/22 08:28:20;;;;;;;;;0.00;0.00;;;;;21.00;39.79;100703.97;5054345;28;45303;-68
2022/12/22 08:30:46;;;;;;;;;0.00;0.00;;;;;20.98;39.90;100695.38;5054020;28;47301;-68
2022/12/22 08:33:11;;;;;;;;;0.67;0.67;;;;;21.06;39.53;100705.94;5054143;28;45348;-68
2022/12/22 08:35:37;;;;;;;;;0.00;0.00;;;;;21.07;39.93;100698.84;5054205;28;45371;-68
2022/12/22 08:38:04;;;;;;;;;0.00;0.00;;;;;21.09;39.86;100699.47;5054180;28;45455;-69
2022/12/22 08:40:31;;;;;;;;;0.00;0.00;;;;;21.05;39.67;100700.84;5053631;28;45421;-69
2022/12/22 08:43:02;;;;;;;;;2.00;0.00;;;;;21.09;39.83;100702.13;5053841;28;45331;-69
2022/12/22 08:45:27;;;;;;;;;0.00;0.00;;;;;21.10;40.16;100700.31;5054236;28;45281;-69
2022/12/22 08:47:53;;;;;;;;;0.00;0.00;;;;;21.08;39.72;100708.41;5054013;28;45424;-68
2022/12/22 08:50:18;;;;;;;;;2.00;0.00;;;;;21.09;39.83;100706.56;5053851;28;46251;-68
2022/12/22 08:52:43;;;;;;;;;0.00;0.00;;;;;21.10;39.85;100703.78;5053867;28;45450;-69
2022/12/22 08:55:09;;;;;;;;;0.00;0.00;;;;;21.09;39.86;100703.94;5020925;28;45808;-68
2022/12/22 08:57:34;;;;;;;;;2.00;0.67;;;;;21.11;39.84;100702.75;5013943;28;45323;-68
2022/12/22 09:00:00;;;;;;;;;0.00;0.00;;;;;21.11;39.68;100707.22;5013645;28;46237;-68
2022/12/22 09:02:25;;;;;;;;;0.00;0.00;;;;;21.04;39.91;100691.25;5023855;28;45351;-69
2022/12/22 09:04:51;;;;;;;;;0.00;0.00;;;;;21.11;39.84;100717.81;5054041;28;45307;-68
2022/12/22 09:07:17;;;;;;;;;0.33;0.33;;;;;21.12;39.69;100725.59;5053921;28;45359;-69
2022/12/22 09:09:42;;;;;;;;;1.00;1.00;;;;;21.12;39.62;100730.03;5053334;28;45939;-68
2022/12/22 09:12:08;;;;;;;;;1.00;1.00;;;;;21.12;39.89;100720.28;5053622;28;45222;-68
2022/12/22 09:14:33;;;;;;;;;0.00;0.00;;;;;21.12;39.86;100722.94;5053792;28;45426;-68
2022/12/22 09:16:59;;;;;;;;;0.00;0.00;;;;;21.12;39.50;100717.63;5053741;28;45288;-68
2022/12/22 09:19:24;;;;;;;;;0.00;0.00;;;;;21.13;39.65;100723.75;5053436;28;46033;-68
2022/12/22 09:21:49;;;;;;;;;0.00;0.00;;;;;21.13;39.89;100734.34;5053669;28;45592;-68
2022/12/22 09:24:15;;;;;;;;;0.00;0.00;;;;;21.03;39.75;100724.81;5053438;28;45574;-68
2022/12/22 09:26:41;;;;;;;;;0.00;0.00;;;;;21.11;39.48;100731.84;5052317;28;45287;-69
2022/12/22 09:29:07;;;;;;;;;0.00;0.00;;;;;21.12;39.86;100727.41;5053427;28;46233;-68
2022/12/22 09:31:32;;;;;;;;;0.00;0.00;;;;;21.13;39.96;100737.00;5053317;28;45367;-69
2022/12/22 09:33:58;;;;;;;;;0.00;0.00;;;;;21.11;39.56;100737.16;5053586;28;45291;-68
2022/12/22 09:36:27;;;;;;;;;0.00;0.00;;;;;21.13;39.50;100744.94;5053404;28;45289;-68
2022/12/22 09:38:53;;;;;;;;;0.00;0.00;;;;;21.08;39.88;100736.69;5052855;28;46274;-68
2022/12/22 09:41:36;;;;;;;;;2.00;0.00;;;;;21.10;39.92;100738.16;5053194;28;45351;-68
2022/12/22 09:44:12;;;;;;;;;2.00;0.00;;;;;21.11;39.85;100739.78;5053479;28;45298;-68
2022/12/22 09:46:38;;;;;;;;;0.00;0.00;;;;;21.11;39.59;100741.59;5053374;28;45370;-69
2022/12/22 09:49:07;;;;;;;;;0.00;0.00;;;;;21.11;40.06;100731.03;5053040;28;46057;-68
2022/12/22 09:51:42;;;;;;;;;1.00;0.00;;;;;21.11;39.76;100739.78;5053344;28;45291;-68
2022/12/22 09:54:10;;;;;;;;;2.00;0.00;;;;;21.10;40.10;100737.34;5049861;28;45436;-68
2022/12/22 09:56:35;;;;;;;;;2.00;0.00;;;;;21.06;39.68;100736.84;5032969;28;45372;-69
2022/12/22 09:59:00;;;;;;;;;0.00;0.00;;;;;21.10;39.92;100742.63;5032631;28;46216;-68
2022/12/22 10:01:25;;;;;;;;;3.33;0.33;;;;;21.11;40.04;100744.25;5032846;28;45312;-69
2022/12/22 10:04:03;;;;;;;;;0.00;0.00;;;;;21.10;39.86;100748.75;5050206;27;45289;-68
2022/12/22 10:07:02;;;;;;;;;0.00;0.00;;;;;21.10;40.18;100742.63;5053134;28;45407;-68
2022/12/22 10:09:32;;;;;;;;;0.67;0.00;;;;;21.09;39.79;100747.09;5052342;28;47247;-68
2022/12/22 10:11:59;;;;;;;;;0.00;0.00;;;;;21.10;39.79;100747.91;5052832;28;45397;-68
2022/12/22 10:14:32;;;;;;;;;1.00;1.00;;;;;21.09;39.64;100748.91;5052900;28;45724;-68
2022/12/22 10:17:19;;;;;;;;;0.33;0.00;;;;;21.10;40.02;100758.50;5052758;28;45264;-68
2022/12/22 10:19:46;;;;;;;;;0.00;0.00;;;;;21.09;39.92;100757.66;5052606;28;45368;-69
2022/12/22 10:22:25;;;;;;;;;0.67;0.00;;;;;21.09;39.85;100756.84;5052362;28;45394;-69
2022/12/22 10:24:50;;;;;;;;;0.00;0.00;;;;;21.08;40.04;100758.66;5052810;28;45477;-69
2022/12/22 10:27:17;;;;;;;;;0.00;0.00;;;;;21.08;39.82;100752.56;5052725;28;45352;-68
2022/12/22 10:29:43;;;;;;;;;0.00;0.00;;;;;21.07;39.90;100749.09;5052493;28;46169;-68
2022/12/22 10:32:17;;;;;;;;;0.67;0.00;;;;;21.06;40.01;100737.69;5052488;28;45363;-68
2022/12/22 10:34:59;;;;;;;;;0.67;0.00;;;;;21.07;39.80;100733.22;5052717;28;45439;-68
2022/12/22 10:37:35;;;;;;;;;1.67;1.67;;;;;21.08;40.01;100723.47;5053265;27;45281;-68
2022/12/22 10:40:18;;;;;;;;;0.00;0.00;;;;;21.06;39.63;100718.34;5055473;28;46407;-68
2022/12/22 10:42:47;;;;;;;;;0.00;0.00;;;;;21.08;39.85;100707.59;5055488;28;45444;-69
2022/12/22 10:45:21;;;;;;;;;0.00;0.00;;;;;21.06;40.18;100713.03;5055652;28;45372;-68
2022/12/22 10:47:52;;;;;;;;;0.00;0.00;;;;;21.08;39.98;100715.53;5055595;28;45162;-69
2022/12/22 10:50:18;;;;;;;;;0.67;0.67;;;;;21.09;40.15;100717.16;5055388;28;45430;-69
2022/12/22 10:52:54;;;;;;;;;3.33;0.00;;;;;21.09;39.81;100714.50;5054921;28;45326;-68
2022/12/22 10:55:28;;;;;;;;;1.00;0.00;;;;;21.10;39.83;100719.66;5042390;28;45338;-68
2022/12/22 10:58:15;;;;;;;;;0.00;0.00;;;;;21.10;40.00;100722.28;5035330;28;45334;-68
2022/12/22 11:00:41;;;;;;;;;0.67;0.67;;;;;21.11;40.03;100715.16;5034932;28;46975;-68
2022/12/22 11:03:13;;;;;;;;;1.67;0.33;;;;;21.11;39.98;100710.69;5045714;28;45440;-68
2022/12/22 11:05:40;;;;;;;;;1.33;0.33;;;;;21.12;40.17;100703.59;5054947;28;45351;-69
2022/12/22 11:08:16;;;;;;;;;1.00;0.00;;;;;21.12;39.56;100699.13;5055402;28;45391;-68
2022/12/22 11:10:51;;;;;;;;;1.00;1.00;;;;;21.13;39.45;100697.31;5054939;28;47207;-68
2022/12/22 11:13:29;;;;;;;;;1.00;1.00;;;;;21.12;39.76;100696.47;5054961;28;45312;-68
2022/12/22 11:16:11;;;;;;;;;1.67;1.00;;;;;21.14;39.92;100702.41;5055188;28;45280;-68
2022/12/22 11:19:07;;;;;;;;;1.00;0.00;;;;;21.14;39.81;100694.47;5055037;28;45405;-68
2022/12/22 11:21:42;;;;;;;;;1.67;0.00;;;;;21.13;39.82;100684.88;5054578;28;46267;-68
2022/12/22 11:24:22;;;;;;;;;0.33;0.00;;;;;21.13;39.91;100690.16;5054962;28;45387;-68
2022/12/22 11:27:21;;;;;;;;;2.33;0.33;;;;;21.14;39.50;100688.34;5054926;28;45422;-69
2022/12/22 11:30:05;;;;;;;;;0.33;0.00;;;;;21.12;39.67;100672.66;5055077;28;45321;-68
2022/12/22 11:32:50;;;;;;;;;2.00;1.33;;;;;21.13;39.69;100678.78;5054663;28;46625;-69
2022/12/22 11:35:36;;;;;;;;;1.00;0.67;;;;;21.12;39.82;100680.59;5054505;28;45323;-68
2022/12/22 11:38:44;;;;;;;;;3.67;1.00;;;;;21.13;39.92;100676.94;5054752;28;45253;-69
2022/12/22 11:41:28;;;;;;;;;3.00;0.00;;;;;21.11;39.66;100663.06;4953565;28;45695;-68
2022/12/22 11:44:11;;;;;;;;;3.33;1.00;;;;;21.12;40.15;100663.91;4953554;28;45456;-68
2022/12/22 11:46:58;;;;;;;;;1.00;1.00;;;;;21.12;39.77;100666.56;4953532;28;45477;-69
2022/12/22 11:49:23;;;;;;;;;0.00;0.00;;;;;21.11;39.58;100655.13;4952375;28;45504;-69
2022/12/22 11:52:01;;;;;;;;;0.00;0.00;;;;;21.13;39.91;100660.28;4953476;28;45389;-68
2022/12/22 11:54:58;;;;;;;;;1.67;0.67;;;;;21.13;39.82;100652.34;4948034;28;45459;-68
2022/12/22 11:57:36;;;;;;;;;2.33;1.33;;;;;21.13;39.86;100649.69;4933959;28;45384;-68
2022/12/22 12:00:12;;;;;;;;;2.00;0.00;;;;;21.12;40.10;100648.84;4934148;28;45418;-69
2022/12/22 12:02:49;;;;;;;;;2.00;0.67;;;;;21.11;39.80;100644.56;4940164;28;45649;-68
2022/12/22 12:05:28;;;;;;;;;1.00;1.00;;;;;21.11;39.96;100647.19;4952999;28;46411;-68
2022/12/22 12:08:01;;;;;;;;;0.00;0.00;;;;;21.06;39.74;100628.41;4953429;28;45395;-68
2022/12/22 12:10:32;;;;;;;;;0.67;0.67;;;;;21.10;39.60;100628.88;4953456;28;45424;-69
2022/12/22 12:13:23;;;;;;;;;0.00;0.00;;;;;21.11;40.19;100633.16;4953376;28;45360;-68
2022/12/22 12:16:17;;;;;;;;;1.00;1.00;;;;;21.11;39.77;100625.22;4953091;28;47104;-69
2022/12/22 12:18:57;;;;;;;;;0.67;0.67;;;;;21.10;39.77;100616.47;5034198;28;47343;-69
2022/12/22 12:21:45;;;;;;;;;2.00;0.67;;;;;21.06;40.16;100605.41;5054397;28;45898;-68
2022/12/22 12:24:17;;;;;;;;;0.00;0.00;;;;;21.10;39.61;100607.72;5054399;28;45352;-68
2022/12/22 12:27:23;;;;;;;;;0.00;0.00;;;;;21.10;39.56;100599.78;5054151;28;46279;-69
2022/12/22 12:29:55;;;;;;;;;2.33;1.00;;;;;21.11;39.75;100596.13;5054159;28;45242;-69
2022/12/22 12:32:39;;;;;;;;;1.00;1.00;;;;;21.10;40.00;100610.34;5053836;28;45287;-69
2022/12/22 12:35:28;;;;;;;;;1.67;1.00;;;;;21.10;39.67;100607.72;5054232;28;45344;-69
2022/12/22 12:38:06;;;;;;;;;0.00;0.00;;;;;21.10;39.83;100605.06;5054028;28;46219;-68
2022/12/22 12:40:50;;;;;;;;;1.67;0.33;;;;;21.09;39.79;100595.47;5053868;28;45478;-68
2022/12/22 12:43:18;;;;;;;;;1.33;0.33;;;;;21.09;40.34;100598.94;5054164;28;45447;-68
2022/12/22 12:45:47;;;;;;;;;1.00;1.00;;;;;21.01;39.94;100588.41;5054006;28;45352;-69
2022/12/22 12:48:24;;;;;;;;;2.00;1.00;;;;;21.10;39.93;100599.78;5053397;28;46198;-68
2022/12/22 12:50:54;;;;;;;;;0.00;0.00;;;;;21.09;39.88;100601.59;5053801;28;45437;-68
2022/12/22 12:53:25;;;;;;;;;2.00;0.00;;;;;21.10;39.84;100594.50;5053992;28;45364;-69
2022/12/22 12:55:53;;;;;;;;;3.00;1.00;;;;;21.10;39.82;100587.38;5036541;28;45572;-69
2022/12/22 12:58:34;;;;;;;;;2.00;1.00;;;;;21.11;39.80;100588.19;5033639;28;46366;-69
2022/12/22 13:00:59;;;;;;;;;1.67;0.00;;;;;20.98;39.84;100576.38;5015654;28;45435;-69
2022/12/22 13:03:28;;;;;;;;;2.00;0.33;;;;;21.11;39.69;100582.88;5046457;28;45445;-69
2022/12/22 13:05:59;;;;;;;;;2.00;0.33;;;;;21.11;40.06;100582.88;5053820;28;45369;-69
2022/12/22 13:08:46;;;;;;;;;1.33;1.00;;;;;21.12;39.98;100585.38;5053520;28;47473;-68
2022/12/22 13:11:14;;;;;;;;;1.67;0.67;;;;;21.12;39.92;100580.06;5053487;28;45392;-68
2022/12/22 13:13:40;;;;;;;;;0.00;0.00;;;;;21.13;40.14;100583.56;5053748;28;45353;-69
2022/12/22 13:16:05;;;;;;;;;0.00;0.00;;;;;21.13;39.73;100576.41;5053437;28;45266;-68
2022/12/22 13:18:33;;;;;;;;;1.00;1.00;;;;;21.14;40.04;100569.31;5053675;28;45246;-69
2022/12/22 13:21:21;;;;;;;;;2.33;1.00;;;;;21.15;39.64;100563.03;5053644;28;45476;-69
2022/12/22 13:23:58;;;;;;;;;2.33;1.00;;;;;21.15;39.65;100560.38;5053702;28;45427;-69
2022/12/22 13:26:27;;;;;;;;;2.00;1.00;;;;;21.10;40.04;100542.41;5053531;28;45404;-69
2022/12/22 13:28:58;;;;;;;;;0.00;0.00;;;;;21.15;39.73;100544.50;5053413;28;45522;-69
2022/12/22 13:31:40;;;;;;;;;1.33;1.00;;;;;21.15;39.77;100547.16;5052966;28;45396;-69
2022/12/22 13:34:43;;;;;;;;;0.00;0.00;;;;;21.14;39.69;100535.75;5053407;28;45400;-69
2022/12/22 13:37:20;;;;;;;;;0.33;0.33;;;;;21.15;39.78;100536.56;5053493;28;45675;-69
2022/12/22 13:40:24;;;;;;;;;1.00;1.00;;;;;21.14;40.09;100524.31;5052921;28;46276;-69
2022/12/22 13:43:03;;;;;;;;;1.00;1.00;;;;;21.14;39.82;100519.03;5053216;28;45460;-69
2022/12/22 13:45:30;;;;;;;;;4.00;0.00;;;;;21.15;40.00;100512.75;5053055;28;45412;-69
2022/12/22 13:47:59;;;;;;;;;1.67;0.33;;;;;21.14;39.93;100508.47;5053164;28;45337;-69
2022/12/22 13:50:31;;;;;;;;;2.67;1.67;;;;;21.14;39.90;100505.81;5052910;28;47376;-68
2022/12/22 13:52:57;;;;;;;;;2.00;1.00;;;;;21.13;39.96;100502.34;5053160;28;45356;-69
2022/12/22 13:55:27;;;;;;;;;1.00;1.00;;;;;21.14;39.66;100500.53;5039877;28;45543;-68
2022/12/22 13:57:53;;;;;;;;;0.00;0.00;;;;;21.03;40.30;100472.69;5033119;28;45348;-69
2022/12/22 14:00:24;;;;;;;;;1.33;0.00;;;;;21.13;40.08;100485.66;5032435;28;46216;-68
2022/12/22 14:02:49;;;;;;;;;0.00;0.00;;;;;21.14;39.90;100488.13;5040829;28;45311;-68
2022/12/22 14:05:16;;;;;;;;;1.33;0.00;;;;;21.03;39.85;100470.88;5053093;28;45316;-68
2022/12/22 14:08:01;;;;;;;;;2.33;1.00;;;;;21.14;39.89;100472.25;5053119;28;45271;-68
2022/12/22 14:10:31;;;;;;;;;2.00;1.00;;;;;21.13;39.82;100470.59;5052763;28;45375;-69
2022/12/22 14:12:59;;;;;;;;;0.67;0.00;;;;;21.13;39.70;100473.25;5052093;28;45244;-69
2022/12/22 14:15:25;;;;;;;;;1.33;0.00;;;;;21.14;40.32;100471.41;5052523;28;45342;-68
2022/12/22 14:17:50;;;;;;;;;0.00;0.00;;;;;21.13;40.13;100467.94;5052884;28;45414;-69
2022/12/22 14:20:35;;;;;;;;;1.00;1.00;;;;;21.13;40.05;100457.38;5052677;28;46962;-69
2022/12/22 14:23:21;;;;;;;;;3.00;0.00;;;;;21.14;39.87;100459.03;5052734;28;45518;-68
2022/12/22 14:25:49;;;;;;;;;2.67;1.00;;;;;21.06;40.16;100449.34;5052716;27;45463;-69
2022/12/22 14:28:49;;;;;;;;;1.00;1.00;;;;;21.13;40.29;100451.28;5052627;28;45549;-71
2022/12/22 14:31:17;;;;;;;;;0.00;0.00;;;;;21.11;40.00;100454.09;4951386;28;45582;-69
2022/12/22 14:34:02;;;;;;;;;1.67;1.67;;;;;21.12;40.24;100447.81;4951386;28;45440;-69
2022/12/22 14:36:35;;;;;;;;;2.00;0.00;;;;;21.02;40.20;100437.50;4951543;28;45460;-69
2022/12/22 14:39:09;;;;;;;;;3.67;1.00;;;;;21.11;39.83;100448.81;4951397;28;45360;-69
2022/12/22 14:41:50;;;;;;;;;2.67;1.00;;;;;21.12;40.12;100444.34;4951187;28;47035;-69
2022/12/22 14:44:21;;;;;;;;;0.00;0.00;;;;;21.11;40.32;100442.69;4951017;28;45361;-69
2022/12/22 14:47:11;;;;;;;;;2.00;2.00;;;;;21.11;40.10;100432.94;4951520;28;45516;-68
2022/12/22 14:49:49;;;;;;;;;2.67;0.33;;;;;21.12;39.91;100428.47;4951324;28;45393;-69
2022/12/22 14:52:43;;;;;;;;;1.00;1.00;;;;;21.11;40.29;100418.88;4950985;28;46219;-69
2022/12/22 14:55:36;;;;;;;;;1.00;0.00;;;;;21.11;40.26;100421.53;4940172;28;45281;-68
2022/12/22 14:58:07;;;;;;;;;0.67;0.00;;;;;21.11;40.07;100416.22;4931762;28;45426;-68
2022/12/22 15:00:35;;;;;;;;;2.00;0.00;;;;;21.09;40.33;100413.78;4931763;28;45485;-68
2022/12/22 15:03:25;;;;;;;;;1.00;1.00;;;;;21.11;40.06;100411.75;4940981;28;46049;-68
2022/12/22 15:05:51;;;;;;;;;0.67;0.00;;;;;21.01;40.40;100390.91;4949748;28;45427;-68
2022/12/22 15:08:36;;;;;;;;;0.00;0.00;;;;;21.11;40.22;100387.97;5052185;28;45368;-68
2022/12/22 15:11:01;;;;;;;;;3.33;1.00;;;;;21.13;40.23;100385.16;5052014;28;45410;-68
2022/12/22 15:13:28;;;;;;;;;1.00;1.00;;;;;21.11;40.54;100376.56;5051484;28;46367;-69
2022/12/22 15:15:54;;;;;;;;;1.33;1.33;;;;;21.08;40.00;100375.09;5051876;28;45445;-68
2022/12/22 15:18:26;;;;;;;;;2.00;1.00;;;;;21.12;40.39;100381.69;5051905;28;45379;-69
2022/12/22 15:20:52;;;;;;;;;1.00;1.00;;;;;21.06;40.10;100358.59;5051743;28;45455;-68
2022/12/22 15:23:18;;;;;;;;;1.00;1.00;;;;;21.15;40.07;100361.97;5051660;28;45371;-68